KNQI/NQI METAR and TAF weather

Enter ICAO airport designator
Station Type Date Time Source
KNQI METAR 2019/04/19 10:56 UTC NOAA

KNQI 191056Z AUTO 31004KT 10SM CLR 12/09 A3000 RMK AO2 SLP156 T01170094 $


Station Type Date Time Source
KNQI Decoded METAR 2019/04/19 10:56 UTC NOAA

KINGSVILLE NAS, TX, United States (KNQI) 27-50N 097-81W 15M
Apr 19, 2019 - 06:56 AM EDT / 2019.04.19 1056 UTC
Wind: from the NW (310 degrees) at 5 MPH (4 KT):0
Visibility: 10 mile(s):0
Sky conditions: clear
Temperature: 53.1 F (11.7 C)
Dew Point: 48.9 F (9.4 C)
Relative Humidity: 85%
Pressure (altimeter): 30 in. Hg (1015 hPa)
ob: KNQI 191056Z AUTO 31004KT 10SM CLR 12/09 A3000 RMK AO2 SLP156 T01170094
cycle: 11

Station Type Date Time Source
KNQI TAF 2019/04/19 07:06 UTC NOAA

TAF KNQI 1907/2007 VRB04KT 9999 FEW250 520009 520906 QNH2996INS
FM191500 33013KT 9999 FEW300 500000 QNH2999INS
BECMG 2000/2002 VRB06KT SKC QNH3001INS AUTOMATED SENSOR METWATCH 1907 TIL 1912 T13/1912Z T27/1921Z FN00210

Example: see airport list